Time;durP1;ratioP1;P1;durP2;ratioP2;P2;SDS_P1;SDS_P2;PMS_P1;PMS_P2;Temp;Humidity;BMP_temperature;BMP_pressure;BME280_temperature;BME280_humidity;BME280_pressure;Samples;Min_cycle;Max_cycle;Signal;HPM_P1;HPM_P2
2021/11/11 00:00:47;;;;;;;11.55;4.95;;;;;;;1.76;93.06;98751.84;4965655;28;20065;-61
2021/11/11 00:03:15;;;;;;;12.55;5.15;;;;;;;1.81;92.57;98746.41;4966423;28;20058;-61
2021/11/11 00:05:41;;;;;;;13.38;4.47;;;;;;;1.70;92.64;98753.78;4966119;28;20058;-62
2021/11/11 00:08:08;;;;;;;11.20;4.10;;;;;;;1.32;92.37;98697.75;4966694;28;20429;-62
2021/11/11 00:10:36;;;;;;;10.23;4.45;;;;;;;1.63;92.97;98752.41;4966522;28;20059;-63
2021/11/11 00:13:03;;;;;;;11.25;4.95;;;;;;;1.49;93.45;98733.81;4965293;28;20600;-61
2021/11/11 00:15:31;;;;;;;15.85;5.45;;;;;;;1.58;94.05;98745.03;4966355;28;20074;-62
2021/11/11 00:17:58;;;;;;;16.25;6.32;;;;;;;1.58;94.27;98745.84;4966532;28;20058;-63
2021/11/11 00:20:27;;;;;;;19.73;6.30;;;;;;;1.58;94.26;98746.94;4965906;28;20066;-61
2021/11/11 00:22:55;;;;;;;17.20;7.10;;;;;;;1.35;94.39;98729.16;4964852;28;20054;-61
2021/11/11 00:25:24;;;;;;;14.02;5.63;;;;;;;1.44;94.08;98747.44;4965747;28;20141;-64
2021/11/11 00:27:51;;;;;;;14.60;6.10;;;;;;;0.40;93.82;98585.13;4966431;28;20054;-62
2021/11/11 00:30:19;;;;;;;13.13;5.32;;;;;;;0.88;93.54;98652.91;4966209;28;20058;-61
2021/11/11 00:32:46;;;;;;;13.38;5.75;;;;;;;0.91;93.64;98679.66;4966817;28;20070;-61
2021/11/11 00:35:17;;;;;;;15.80;5.65;;;;;;;1.50;93.01;98745.56;4964408;28;20046;-62
2021/11/11 00:37:44;;;;;;;17.17;6.50;;;;;;;0.68;92.46;98606.47;4964607;28;20129;-62
2021/11/11 00:40:12;;;;;;;19.52;6.82;;;;;;;1.40;93.14;98721.81;4964097;28;20051;-62
2021/11/11 00:42:39;;;;;;;15.00;6.13;;;;;;;1.36;93.46;98719.84;4964325;28;20524;-63
2021/11/11 00:45:07;;;;;;;17.70;6.88;;;;;;;1.46;92.65;98845.47;4965503;28;20062;-61
2021/11/11 00:47:34;;;;;;;15.90;6.00;;;;;;;1.47;93.83;98755.09;4965811;28;20540;-63
2021/11/11 00:50:00;;;;;;;20.98;7.35;;;;;;;0.86;93.18;98633.25;4965646;28;20611;-63
2021/11/11 00:52:28;;;;;;;19.85;6.55;;;;;;;1.58;92.72;98725.09;4965720;28;20523;-62
2021/11/11 00:54:55;;;;;;;10.55;5.88;;;;;;;0.84;93.38;98635.44;4965870;28;20058;-65
2021/11/11 00:57:21;;;;;;;10.23;4.93;;;;;;;1.37;93.51;98722.34;4965519;28;20059;-63
2021/11/11 00:59:48;;;;;;;6.70;4.03;;;;;;;1.26;94.85;98707.03;4963890;28;20062;-64
2021/11/11 01:02:15;;;;;;;10.20;4.65;;;;;;;1.37;94.75;98716.88;4963923;28;20419;-62
2021/11/11 01:04:42;;;;;;;7.47;3.65;;;;;;;0.82;95.21;98634.88;4965227;28;20095;-63
2021/11/11 01:07:09;;;;;;;14.05;4.35;;;;;;;1.22;94.96;98714.09;4964965;28;20561;-62
2021/11/11 01:09:37;;;;;;;9.57;3.67;;;;;;;0.67;94.89;98658.56;4963721;28;20054;-62
2021/11/11 01:12:07;;;;;;;8.63;3.97;;;;;;;-0.57;94.81;98404.50;4964573;28;20086;-62
2021/11/11 01:14:35;;;;;;;8.88;3.75;;;;;;;1.31;94.57;98720.66;4965733;28;20061;-63
2021/11/11 01:17:03;;;;;;;11.88;4.55;;;;;;;0.73;94.86;98633.78;4965052;28;20047;-65
2021/11/11 01:19:30;;;;;;;10.93;4.38;;;;;;;1.15;94.88;98707.28;4965408;28;20081;-62
2021/11/11 01:21:57;;;;;;;10.20;4.60;;;;;;;1.35;93.92;98721.78;4964848;28;20069;-61
2021/11/11 01:24:24;;;;;;;11.10;4.38;;;;;;;1.23;93.32;98706.75;4963657;28;20054;-62
2021/11/11 01:26:51;;;;;;;9.60;3.97;;;;;;;1.04;94.29;98725.50;4965226;28;20055;-62
2021/11/11 01:29:17;;;;;;;12.32;3.83;;;;;;;0.67;93.50;98607.59;4963967;28;20057;-64
2021/11/11 01:31:45;;;;;;;12.52;5.18;;;;;;;0.62;93.65;98615.75;4965138;28;20097;-62
2021/11/11 01:34:11;;;;;;;11.27;4.20;;;;;;;1.29;93.69;98703.75;4965569;28;20438;-62
2021/11/11 01:36:39;;;;;;;8.95;3.47;;;;;;;1.30;94.24;98776.34;4965270;28;20053;-62
2021/11/11 01:39:06;;;;;;;7.47;3.22;;;;;;;0.97;93.19;98628.63;4963729;28;20054;-62
2021/11/11 01:41:33;;;;;;;8.70;3.85;;;;;;;1.43;93.19;98704.88;4964289;28;20519;-62
2021/11/11 01:44:00;;;;;;;9.65;3.72;;;;;;;1.32;93.74;98697.75;4963589;28;20063;-62
2021/11/11 01:46:27;;;;;;;8.98;3.50;;;;;;;1.22;93.00;98702.38;4963041;28;20062;-61
2021/11/11 01:48:54;;;;;;;9.82;3.47;;;;;;;1.19;93.79;98698.28;4965253;28;20638;-61
2021/11/11 01:51:22;;;;;;;8.93;3.58;;;;;;;1.20;93.77;98694.44;4963598;28;20453;-62
2021/11/11 01:53:50;;;;;;;9.77;3.85;;;;;;;1.13;94.20;98671.25;4963548;28;20065;-62
2021/11/11 01:56:18;;;;;;;7.68;3.15;;;;;;;1.20;93.78;98699.91;4963024;28;20453;-63
2021/11/11 01:58:45;;;;;;;9.32;3.55;;;;;;;1.01;93.50;98701.50;4965133;28;20058;-63
2021/11/11 02:01:12;;;;;;;9.38;3.75;;;;;;;1.24;94.44;98695.56;4964161;28;20071;-61
2021/11/11 02:03:39;;;;;;;9.20;4.15;;;;;;;0.73;93.73;98644.69;4964725;28;20051;-62
2021/11/11 02:06:06;;;;;;;9.43;3.70;;;;;;;0.94;94.74;98661.91;4964742;28;20453;-63
2021/11/11 02:08:32;;;;;;;9.40;3.80;;;;;;;1.04;94.63;98684.56;4964731;28;20055;-61
2021/11/11 02:10:59;;;;;;;7.88;3.20;;;;;;;0.59;94.88;98594.47;4964344;28;20055;-62
2021/11/11 02:13:26;;;;;;;6.22;2.72;;;;;;;1.12;94.92;98684.06;4963373;28;20070;-61
2021/11/11 02:15:53;;;;;;;7.07;3.17;;;;;;;1.09;95.25;98690.06;4964412;28;20050;-60
2021/11/11 02:18:20;;;;;;;8.55;3.40;;;;;;;-1.64;94.64;98247.38;4964920;28;20141;-61
2021/11/11 02:20:47;;;;;;;9.65;2.75;;;;;;;1.05;94.74;98680.78;4962832;28;20527;-60
2021/11/11 02:23:17;;;;;;;7.55;3.10;;;;;;;0.88;95.80;98658.38;4964860;28;20061;-62
2021/11/11 02:25:44;;;;;;;7.25;3.10;;;;;;;0.50;94.71;98596.09;4965851;28;20059;-61
2021/11/11 02:28:14;;;;;;;7.13;3.05;;;;;;;1.07;94.89;98689.53;4968360;28;20059;-61
2021/11/11 02:30:44;;;;;;;7.70;3.53;;;;;;;0.73;94.28;98633.78;4968124;28;20194;-61
2021/11/11 02:33:13;;;;;;;7.82;2.80;;;;;;;1.07;94.02;98673.16;4966617;28;20489;-63
2021/11/11 02:35:40;;;;;;;6.10;3.00;;;;;;;0.56;94.77;98592.28;4968383;28;20053;-63
2021/11/11 02:38:08;;;;;;;4.35;2.35;;;;;;;1.07;93.25;98673.16;4968270;28;20526;-61
2021/11/11 02:40:36;;;;;;;7.82;2.85;;;;;;;1.00;94.01;98667.13;4966708;28;20085;-62
2021/11/11 02:43:03;;;;;;;8.00;2.63;;;;;;;1.09;93.92;98662.78;4967663;28;20494;-61
2021/11/11 02:45:36;;;;;;;5.05;2.45;;;;;;;0.58;94.13;98587.38;4967865;28;20065;-61
2021/11/11 02:48:05;;;;;;;8.55;2.95;;;;;;;0.96;94.99;98667.94;4967928;28;20058;-61
2021/11/11 02:50:33;;;;;;;6.68;3.35;;;;;;;-0.89;94.30;98363.84;4967744;28;20057;-60
2021/11/11 02:53:00;;;;;;;13.85;4.82;;;;;;;0.95;93.89;98650.75;4966362;28;20051;-62
2021/11/11 02:55:29;;;;;;;9.18;3.40;;;;;;;0.39;93.94;98561.72;4957168;28;20055;-64
2021/11/11 02:57:57;;;;;;;9.57;3.42;;;;;;;0.92;95.15;98654.00;4969169;28;20043;-60
2021/11/11 03:00:39;;;;;;;12.27;3.45;;;;;;;0.60;93.04;98596.09;4967379;28;20533;-62
2021/11/11 03:03:06;;;;;;;7.00;3.40;;;;;;;0.89;93.67;98640.91;4966089;28;20054;-62
2021/11/11 03:05:34;;;;;;;9.48;3.45;;;;;;;-2.43;92.67;98096.53;4967550;28;20154;-61
2021/11/11 03:08:01;;;;;;;5.60;3.25;;;;;;;0.64;93.48;98610.84;4967437;28;20059;-61
2021/11/11 03:10:30;;;;;;;6.65;2.80;;;;;;;0.72;94.20;98637.59;4967377;28;20453;-63
2021/11/11 03:12:58;;;;;;;8.23;2.95;;;;;;;0.61;94.60;98611.38;4966751;28;20059;-61
2021/11/11 03:15:28;;;;;;;6.43;2.88;;;;;;;0.75;94.68;98634.34;4967357;28;20057;-61
2021/11/11 03:17:55;;;;;;;7.35;3.03;;;;;;;0.51;94.50;98592.25;4966107;28;20058;-63
2021/11/11 03:20:22;;;;;;;9.18;3.40;;;;;;;0.93;95.30;98624.84;4967796;28;20133;-61
2021/11/11 03:22:49;;;;;;;7.38;4.00;;;;;;;0.57;93.86;98572.09;4967497;28;20051;-61
2021/11/11 03:25:20;;;;;;;9.63;5.40;;;;;;;-0.01;93.62;98517.97;4967116;28;20537;-61
2021/11/11 03:27:48;;;;;;;9.45;5.30;;;;;;;0.94;93.28;98627.28;4966760;28;20050;-61
2021/11/11 03:30:16;;;;;;;14.02;6.40;;;;;;;0.67;93.99;98577.59;4967029;28;20137;-61
2021/11/11 03:32:44;;;;;;;11.88;4.78;;;;;;;1.06;93.21;98611.47;4967315;28;20077;-62
2021/11/11 03:35:12;;;;;;;11.25;4.93;;;;;;;0.58;92.85;98560.13;4966829;28;20464;-63
2021/11/11 03:37:41;;;;;;;8.63;3.85;;;;;;;1.07;93.75;98607.69;4964933;28;20074;-61
2021/11/11 03:40:11;;;;;;;7.78;4.15;;;;;;;1.10;93.30;98607.13;4965798;28;20133;-61
2021/11/11 03:42:38;;;;;;;8.35;3.33;;;;;;;1.00;94.13;98612.56;4966812;28;20086;-63
2021/11/11 03:45:07;;;;;;;6.15;2.63;;;;;;;0.98;93.75;98606.53;4966596;28;20058;-61
2021/11/11 03:47:34;;;;;;;8.55;2.42;;;;;;;1.00;94.10;98604.38;4966586;28;20062;-61
2021/11/11 03:50:00;;;;;;;9.32;3.05;;;;;;;1.05;93.47;98598.94;4965643;28;20426;-61
2021/11/11 03:52:27;;;;;;;6.35;2.88;;;;;;;0.99;93.31;98583.66;4966813;28;20072;-63
2021/11/11 03:54:54;;;;;;;7.03;2.78;;;;;;;0.71;94.16;98543.22;4965115;28;20058;-61
2021/11/11 03:57:21;;;;;;;6.82;3.05;;;;;;;0.06;92.94;98439.56;4966408;28;20061;-62
2021/11/11 03:59:47;;;;;;;7.57;3.80;;;;;;;1.02;92.85;98604.94;4967021;28;20053;-60
2021/11/11 04:02:14;;;;;;;7.32;3.33;;;;;;;0.98;93.90;98592.09;4966537;28;20074;-61
2021/11/11 04:04:42;;;;;;;10.10;4.47;;;;;;;0.97;93.49;98585.81;4966491;28;20057;-61
2021/11/11 04:07:08;;;;;;;14.43;6.40;;;;;;;1.03;93.98;98584.72;4964997;28;20054;-61
2021/11/11 04:09:35;;;;;;;17.88;6.70;;;;;;;0.56;93.69;98510.50;4964745;28;20101;-62
2021/11/11 04:12:04;;;;;;;20.52;8.82;;;;;;;0.95;93.81;98585.25;4966220;28;20050;-61
2021/11/11 04:14:32;;;;;;;30.60;11.63;;;;;;;1.02;93.57;98583.09;4966305;28;20109;-61
2021/11/11 04:16:59;;;;;;;25.08;9.85;;;;;;;0.92;93.82;98580.34;4966116;28;20055;-61
2021/11/11 04:19:26;;;;;;;21.33;7.90;;;;;;;0.91;94.43;98580.63;4966509;28;20065;-60
2021/11/11 04:21:53;;;;;;;16.30;5.75;;;;;;;0.83;93.98;98568.34;4964423;28;20061;-61
2021/11/11 04:24:20;;;;;;;12.27;4.32;;;;;;;0.91;93.53;98572.44;4966113;28;20059;-60
2021/11/11 04:26:53;;;;;;;9.48;4.13;;;;;;;0.92;93.99;98588.53;4966280;28;20061;-61
2021/11/11 04:29:24;;;;;;;11.45;4.93;;;;;;;0.88;94.06;98571.09;4966039;28;20050;-60
2021/11/11 04:31:56;;;;;;;13.70;5.07;;;;;;;0.22;94.47;98522.97;4965935;28;20051;-60
2021/11/11 04:34:23;;;;;;;17.33;4.75;;;;;;;0.84;94.21;98567.25;4965849;28;20510;-61
2021/11/11 05:03:34;;;;;;;11.95;5.28;;;;;;;-0.01;96.03;98468.94;4965138;28;20445;-61
2021/11/11 05:06:01;;;;;;;11.63;4.50;;;;;;;0.78;95.91;98571.06;4965294;28;20065;-62
2021/11/11 05:08:30;;;;;;;10.70;5.07;;;;;;;-0.25;96.10;98402.44;4965072;28;20069;-60
2021/11/11 05:10:58;;;;;;;9.35;5.32;;;;;;;0.59;95.84;98512.69;4965241;28;20593;-61
2021/11/11 05:13:25;;;;;;;12.75;5.15;;;;;;;0.76;94.99;98553.34;4965004;28;20063;-61
2021/11/11 05:15:52;;;;;;;11.77;4.55;;;;;;;0.73;95.60;98541.06;4964844;28;20065;-60
2021/11/11 05:18:19;;;;;;;7.60;3.67;;;;;;;0.75;95.82;98549.78;4965258;28;20046;-62
2021/11/11 05:20:45;;;;;;;9.98;4.45;;;;;;;0.68;95.46;98554.69;4964816;28;20050;-62
2021/11/11 05:23:13;;;;;;;9.15;3.92;;;;;;;0.77;94.10;98544.91;4962933;28;20057;-63
2021/11/11 05:25:39;;;;;;;10.95;5.57;;;;;;;0.86;93.24;98540.53;4964541;28;20059;-61
2021/11/11 05:28:06;;;;;;;13.68;5.93;;;;;;;0.74;91.86;98520.91;4965398;28;20054;-61
2021/11/11 05:30:33;;;;;;;12.32;5.88;;;;;;;0.90;92.11;98540.81;4965387;28;20113;-61
2021/11/11 05:33:00;;;;;;;11.75;5.40;;;;;;;1.02;93.02;98539.47;4963606;28;20053;-62
2021/11/11 05:35:27;;;;;;;21.20;8.27;;;;;;;1.08;93.33;98541.09;4964320;28;20062;-62
2021/11/11 05:37:54;;;;;;;35.90;13.02;;;;;;;0.81;93.21;98476.97;4947334;28;20063;-60
2021/11/11 05:40:22;;;;;;;66.93;24.90;;;;;;;1.33;91.82;98541.06;4964520;28;20713;-60
2021/11/11 05:42:49;;;;;;;101.55;34.33;;;;;;;1.40;90.17;98538.06;4976895;28;20059;-61
2021/11/11 05:45:17;;;;;;;42.28;15.55;;;;;;;1.16;90.83;98485.13;4964411;28;20145;-63
2021/11/11 05:47:45;;;;;;;49.78;21.98;;;;;;;1.68;90.16;98531.16;4964854;28;20151;-67
2021/11/11 05:50:14;;;;;;;37.22;15.75;;;;;;;1.85;87.45;98531.69;4960303;28;20093;-67
2021/11/11 05:52:41;;;;;;;33.33;14.48;;;;;;;1.90;86.55;98534.41;4964878;28;20133;-68
2021/11/11 05:55:09;;;;;;;23.50;10.55;;;;;;;1.92;86.76;98524.84;4964539;28;20055;-67
2021/11/11 05:57:36;;;;;;;90.70;33.08;;;;;;;1.85;85.83;98491.50;4962656;28;20066;-67
2021/11/11 06:00:07;;;;;;;63.15;27.77;;;;;;;-0.42;84.73;98107.91;4966606;28;20055;-67
2021/11/11 06:02:34;;;;;;;49.55;22.83;;;;;;;1.52;83.73;98367.41;4968762;28;20065;-67
2021/11/11 06:05:00;;;;;;;70.40;26.88;;;;;;;2.06;83.75;98443.88;4967575;28;20786;-68
2021/11/11 06:07:27;;;;;;;50.63;22.45;;;;;;;1.24;82.46;98280.75;4968914;28;20080;-67
2021/11/11 06:09:54;;;;;;;38.40;17.58;;;;;;;2.91;82.10;98530.03;4968618;28;20051;-67
2021/11/11 06:12:23;;;;;;;37.83;13.85;;;;;;;3.10;80.69;98522.75;4968632;28;20058;-65
2021/11/11 06:14:50;;;;;;;29.42;12.20;;;;;;;2.95;81.50;98503.75;4966845;28;20061;-68
2021/11/11 06:17:17;;;;;;;36.60;16.10;;;;;;;3.09;81.63;98501.97;4968393;28;20055;-67
2021/11/11 06:19:45;;;;;;;41.13;18.15;;;;;;;3.41;80.69;98518.69;4968013;28;20275;-67
2021/11/11 06:22:13;;;;;;;40.13;19.00;;;;;;;3.58;80.08;98519.06;4967976;28;20050;-66
2021/11/11 06:24:40;;;;;;;37.25;17.58;;;;;;;3.58;79.31;98524.53;4968243;28;20062;-67
2021/11/11 06:27:07;;;;;;;32.97;15.23;;;;;;;3.70;79.48;98504.97;4968017;28;20054;-68
2021/11/11 06:29:36;;;;;;;30.05;14.68;;;;;;;4.05;79.08;98508.09;4968411;28;20062;-67
2021/11/11 06:32:04;;;;;;;23.48;11.40;;;;;;;4.27;78.88;98516.59;4966504;28;20528;-67
2021/11/11 06:34:51;;;;;;;28.02;12.07;;;;;;;3.42;78.36;98358.72;4966636;28;20518;-68
2021/11/11 06:37:18;;;;;;;29.00;12.77;;;;;;;4.55;78.85;98512.94;4968026;28;20050;-68
2021/11/11 06:39:44;;;;;;;24.50;12.50;;;;;;;4.65;78.35;98520.19;4966413;28;20061;-67
2021/11/11 06:42:12;;;;;;;26.80;12.50;;;;;;;4.87;76.99;98519.63;4968017;28;20090;-68
2021/11/11 06:44:42;;;;;;;32.28;14.80;;;;;;;4.75;76.10;98472.59;4968385;28;20073;-68
2021/11/11 06:47:09;;;;;;;27.65;11.18;;;;;;;5.23;75.74;98512.47;4967868;28;20965;-67
2021/11/11 06:49:35;;;;;;;19.95;10.00;;;;;;;5.18;74.24;98496.06;4966438;28;20054;-68
2021/11/11 06:52:04;;;;;;;25.77;11.75;;;;;;;5.04;73.54;98462.25;4967800;28;20050;-66
2021/11/11 06:54:31;;;;;;;24.75;10.20;;;;;;;4.92;72.98;98429.75;4966269;28;20081;-68
2021/11/11 06:56:59;;;;;;;24.15;9.70;;;;;;;5.58;73.15;98498.91;4967432;28;20077;-67
2021/11/11 06:59:29;;;;;;;24.13;10.23;;;;;;;5.32;73.67;98420.81;4967924;28;20058;-67
2021/11/11 07:01:55;;;;;;;23.80;10.48;;;;;;;4.93;71.85;98326.25;4967463;28;20062;-68
2021/11/11 07:04:25;;;;;;;16.73;9.40;;;;;;;5.29;70.31;98407.69;4961584;28;20080;-70
2021/11/11 07:06:53;;;;;;;15.55;8.15;;;;;;;4.73;69.75;98282.72;4966103;28;20046;-66
2021/11/11 07:09:20;;;;;;;17.92;8.45;;;;;;;3.83;69.10;98102.22;4965189;28;20058;-62
2021/11/11 07:11:47;;;;;;;22.35;9.75;;;;;;;5.11;70.36;98322.59;4965920;28;20097;-69
2021/11/11 07:14:14;;;;;;;22.60;9.65;;;;;;;6.09;69.46;98427.25;4966720;28;20576;-70
2021/11/11 07:16:40;;;;;;;19.95;8.48;;;;;;;5.57;68.06;98332.38;4964769;28;20121;-71
2021/11/11 07:19:07;;;;;;;26.85;10.02;;;;;;;6.69;67.86;98474.63;4967303;28;20050;-65
2021/11/11 07:21:34;;;;;;;14.85;7.47;;;;;;;6.90;67.41;98482.13;4964188;28;20100;-72
2021/11/11 07:24:00;;;;;;;24.85;11.55;;;;;;;5.82;67.20;98254.06;4960982;28;20058;-64
2021/11/11 07:26:27;;;;;;;18.10;8.65;;;;;;;6.72;65.91;98369.41;4966329;28;20063;-63
2021/11/11 07:28:54;;;;;;;14.63;8.00;;;;;;;7.46;66.71;98467.78;4966859;28;20055;-66
2021/11/11 07:31:25;;;;;;;17.58;7.28;;;;;;;6.58;64.29;98341.91;4966676;28;20051;-71
2021/11/11 07:33:53;;;;;;;15.25;8.27;;;;;;;7.61;65.16;98459.09;4965915;28;20481;-62
2021/11/11 07:36:24;;;;;;;23.40;9.10;;;;;;;6.56;65.36;98272.59;4965486;28;20054;-68
2021/11/11 07:38:52;;;;;;;208.48;61.92;;;;;;;6.78;64.50;98275.31;4961773;28;20110;-70
2021/11/11 07:41:20;;;;;;;36.45;16.10;;;;;;;7.79;64.05;98432.41;4963926;28;20059;-69
2021/11/11 07:43:46;;;;;;;16.27;6.75;;;;;;;8.07;64.61;98456.72;4965872;28;20196;-64
2021/11/11 07:46:14;;;;;;;16.30;6.80;;;;;;;6.53;63.40;98228.41;4965032;28;20161;-67
2021/11/11 07:48:41;;;;;;;12.40;6.60;;;;;;;7.99;63.37;98404.25;4966207;28;20051;-64
2021/11/11 07:51:08;;;;;;;14.88;7.28;;;;;;;7.83;62.62;98351.47;4966077;28;20560;-64
2021/11/11 07:53:35;;;;;;;18.90;7.93;;;;;;;7.74;63.12;98318.31;4964881;28;20090;-65
2021/11/11 07:56:02;;;;;;;14.57;7.97;;;;;;;8.80;63.10;98436.56;4965339;28;20061;-63
2021/11/11 07:58:30;;;;;;;12.02;4.60;;;;;;;8.20;62.01;98361.13;4965260;28;20064;-62
2021/11/11 08:00:57;;;;;;;7.78;4.25;;;;;;;8.98;61.15;98438.19;4961080;28;20502;-63
2021/11/11 08:03:24;;;;;;;5.90;3.50;;;;;;;8.16;62.34;98404.28;4965964;28;20059;-62
2021/11/11 08:05:51;;;;;;;3.10;2.53;;;;;;;7.16;63.61;98257.19;4965237;28;20063;-64
2021/11/11 08:08:17;;;;;;;5.55;2.60;;;;;;;8.27;63.79;98389.06;4965649;28;20057;-62
2021/11/11 08:10:44;;;;;;;4.82;2.95;;;;;;;8.75;61.02;98451.38;4965349;28;20051;-67
2021/11/11 08:13:11;;;;;;;7.40;3.45;;;;;;;8.78;60.04;98449.88;4963695;28;20042;-63
2021/11/11 08:15:38;;;;;;;4.95;3.30;;;;;;;8.95;59.29;98416.72;4964662;28;20125;-68
2021/11/11 08:18:13;;;;;;;6.82;3.65;;;;;;;8.97;57.88;98406.16;4962403;28;20047;-60
2021/11/11 08:20:40;;;;;;;6.20;3.53;;;;;;;8.68;59.17;98342.47;4964172;28;20069;-64
2021/11/11 08:23:07;;;;;;;8.48;4.13;;;;;;;9.35;58.24;98418.13;4967128;28;20425;-63
2021/11/11 08:25:34;;;;;;;7.32;3.03;;;;;;;9.26;56.93;98417.34;4965678;28;20105;-63
2021/11/11 08:28:01;;;;;;;6.18;3.45;;;;;;;9.04;56.14;98337.41;4960765;28;20073;-66
2021/11/11 08:30:28;;;;;;;9.25;3.15;;;;;;;9.39;56.29;98437.66;4963554;28;20624;-60
2021/11/11 08:32:55;;;;;;;5.53;3.20;;;;;;;9.67;54.86;98406.50;4962400;28;20051;-65
2021/11/11 08:35:24;;;;;;;5.38;2.13;;;;;;;9.51;52.89;98402.66;4963122;28;20154;-69
2021/11/11 08:37:53;;;;;;;3.97;2.78;;;;;;;8.99;54.49;98337.56;4963078;28;20069;-65
2021/11/11 08:40:21;;;;;;;4.68;2.83;;;;;;;8.97;55.67;98292.84;4963478;28;20094;-61
2021/11/11 08:42:51;;;;;;;7.10;3.10;;;;;;;9.61;54.33;98346.94;4962976;28;20058;-68
2021/11/11 08:45:18;;;;;;;4.53;3.25;;;;;;;9.31;53.74;98287.19;4961566;28;20728;-68
2021/11/11 08:47:46;;;;;;;7.35;3.80;;;;;;;8.87;53.95;98233.22;4958120;28;20056;-60
2021/11/11 08:50:14;;;;;;;7.00;2.90;;;;;;;10.22;53.83;98390.63;4957107;28;20539;-61
2021/11/11 08:52:45;;;;;;;5.45;2.72;;;;;;;10.06;52.60;98353.56;4957192;28;20065;-59
2021/11/11 08:55:17;;;;;;;6.80;2.70;;;;;;;9.37;53.36;98274.84;4964609;28;20059;-62
2021/11/11 08:57:44;;;;;;;5.38;2.50;;;;;;;9.48;53.71;98336.94;4963122;28;20057;-63
2021/11/11 09:00:15;;;;;;;7.47;3.05;;;;;;;8.94;53.50;98232.72;4953480;28;20059;-68
2021/11/11 09:02:46;;;;;;;6.50;3.08;;;;;;;9.86;53.10;98370.94;4946145;28;20051;-63
2021/11/11 09:05:14;;;;;;;3.90;2.83;;;;;;;9.28;52.45;98290.63;4944882;29;20538;-62
2021/11/11 09:07:42;;;;;;;4.75;3.40;;;;;;;8.88;53.34;98176.03;4945541;28;20551;-62
2021/11/11 09:10:20;;;;;;;7.72;3.42;;;;;;;10.38;53.34;98377.81;4945336;28;20048;-62
2021/11/11 09:12:49;;;;;;;6.13;3.30;;;;;;;10.31;52.75;98321.31;4965293;28;20062;-64
2021/11/11 09:15:18;;;;;;;9.40;3.83;;;;;;;10.69;53.15;98364.38;4965016;28;20547;-62
2021/11/11 09:17:46;;;;;;;10.27;4.03;;;;;;;10.73;53.13;98307.09;4963127;28;20510;-61
2021/11/11 09:20:15;;;;;;;5.55;3.75;;;;;;;11.25;52.50;98349.00;4963486;28;20450;-61
2021/11/11 09:22:43;;;;;;;13.98;6.57;;;;;;;11.57;51.66;98350.09;4961965;28;20523;-62
2021/11/11 09:25:11;;;;;;;10.15;4.57;;;;;;;11.02;50.38;98205.53;4958593;28;20097;-67
2021/11/11 09:27:40;;;;;;;7.47;3.63;;;;;;;11.91;49.85;98342.16;4962393;28;20054;-65
2021/11/11 09:30:10;;;;;;;11.25;6.32;;;;;;;12.06;50.09;98332.31;4963010;28;20062;-62
2021/11/11 09:32:39;;;;;;;7.20;3.50;;;;;;;11.75;49.23;98271.00;4963112;28;20672;-64
2021/11/11 09:35:07;;;;;;;7.80;3.95;;;;;;;11.43;49.14;98177.59;4963059;28;20054;-65
2021/11/11 09:37:35;;;;;;;5.20;2.83;;;;;;;11.92;48.73;98320.72;4964827;28;20055;-62
2021/11/11 09:40:04;;;;;;;5.65;2.90;;;;;;;10.94;49.48;98250.81;4965022;28;20433;-61
2021/11/11 09:42:37;;;;;;;6.75;3.60;;;;;;;11.25;49.72;98228.91;4964222;28;20051;-62
2021/11/11 09:45:06;;;;;;;10.65;6.57;;;;;;;11.93;49.12;98302.94;4963297;28;20050;-61
2021/11/11 09:47:34;;;;;;;9.15;4.47;;;;;;;11.16;48.89;98176.28;4964287;28;20434;-61
2021/11/11 09:50:04;;;;;;;4.40;3.00;;;;;;;11.77;48.07;98290.91;4958584;28;20061;-67
2021/11/11 09:52:31;;;;;;;6.75;2.80;;;;;;;11.68;49.54;98299.34;4974365;28;20063;-63
2021/11/11 10:00:31;;;;;;;4.68;2.88;;;;;;;12.34;47.71;98291.53;4962659;28;20057;-65
2021/11/11 10:02:58;;;;;;;3.22;2.42;;;;;;;12.20;48.57;98266.09;4963292;28;20517;-68
2021/11/11 10:05:24;;;;;;;4.22;2.88;;;;;;;12.59;47.63;98270.81;4962991;28;20134;-67
2021/11/11 10:07:51;;;;;;;7.20;3.30;;;;;;;11.73;48.48;98185.31;4962670;28;20130;-66
2021/11/11 10:10:31;;;;;;;6.35;3.33;;;;;;;10.65;52.06;98211.00;4959047;28;20537;-67
2021/11/11 10:13:20;;;;;;;7.50;3.05;;;;;;;8.54;52.54;97952.47;4963179;28;20051;-62
2021/11/11 10:15:58;;;;;;;4.38;2.55;;;;;;;11.11;51.25;98245.06;4962677;28;20050;-68
2021/11/11 10:18:45;;;;;;;6.30;4.97;;;;;;;11.65;50.92;98238.19;4963488;28;20497;-70
2021/11/11 10:21:28;;;;;;;6.88;3.45;;;;;;;12.03;49.77;98227.47;4964845;28;20050;-68
2021/11/11 10:23:59;;;;;;;4.18;2.75;;;;;;;12.01;49.27;98232.56;4954964;28;20049;-68
2021/11/11 10:26:39;;;;;;;5.38;3.08;;;;;;;10.93;48.74;98052.34;4962190;28;20137;-63
2021/11/11 10:29:23;;;;;;;5.38;2.63;;;;;;;11.54;49.11;98173.97;4960152;28;20054;-66
2021/11/11 10:31:55;;;;;;;5.25;2.65;;;;;;;10.16;48.74;97931.53;4962422;28;20055;-62
2021/11/11 10:34:22;;;;;;;4.38;3.20;;;;;;;9.66;49.03;97893.06;4962743;28;20059;-63
2021/11/11 10:36:53;;;;;;;2.22;2.03;;;;;;;10.77;49.92;98113.22;4962679;28;20051;-62
2021/11/11 10:39:32;;;;;;;7.18;2.80;;;;;;;11.74;50.27;98198.03;4970231;28;20434;-64
2021/11/11 10:42:14;;;;;;;7.47;3.10;;;;;;;11.09;48.98;98059.63;4964021;28;20139;-68
2021/11/11 10:44:40;;;;;;;6.63;2.58;;;;;;;11.91;48.12;98192.22;4964005;28;20559;-66
2021/11/11 10:47:11;;;;;;;6.88;2.30;;;;;;;11.74;48.77;98186.13;4965761;28;20308;-60
2021/11/11 10:49:40;;;;;;;6.00;3.00;;;;;;;11.33;50.31;98170.53;4966879;28;20061;-65
2021/11/11 10:52:24;;;;;;;2.92;2.10;;;;;;;11.89;49.24;98182.59;4967102;28;20063;-66
2021/11/11 10:55:14;;;;;;;6.45;2.92;;;;;;;11.76;49.80;98172.72;4959431;28;20059;-62
2021/11/11 10:57:50;;;;;;;6.30;3.38;;;;;;;12.01;50.07;98169.50;4965091;28;20059;-62
2021/11/11 11:00:38;;;;;;;3.10;2.33;;;;;;;12.34;49.37;98165.66;4965333;28;20186;-63
2021/11/11 11:03:19;;;;;;;3.65;2.85;;;;;;;12.68;48.67;98160.25;4960437;28;20086;-65
2021/11/11 11:06:05;;;;;;;4.93;3.10;;;;;;;12.79;47.53;98132.72;4954058;28;20081;-63
2021/11/11 11:08:37;;;;;;;4.43;2.53;;;;;;;11.79;48.46;98105.38;4967606;28;20161;-62
2021/11/11 11:11:08;;;;;;;4.18;2.60;;;;;;;11.54;49.37;98059.41;4967745;28;20105;-62
2021/11/11 11:13:37;;;;;;;4.07;2.50;;;;;;;12.01;48.43;98140.94;4966097;28;20059;-61
2021/11/11 11:16:09;;;;;;;3.65;2.30;;;;;;;11.19;49.07;98081.31;4965943;28;20766;-61
2021/11/11 11:18:40;;;;;;;10.00;4.53;;;;;;;11.19;49.59;98053.56;4967446;28;20051;-63
2021/11/11 11:21:11;;;;;;;4.57;2.70;;;;;;;12.31;48.12;98144.97;4966492;28;20057;-62
2021/11/11 11:23:44;;;;;;;3.58;2.60;;;;;;;12.06;47.67;98151.78;4967556;28;20057;-64
2021/11/11 11:26:16;;;;;;;7.07;2.87;;;;;;;11.96;48.83;98138.41;4965593;28;20063;-62
2021/11/11 11:28:49;;;;;;;2.88;2.10;;;;;;;12.05;47.66;98066.84;4966731;28;20312;-62
2021/11/11 11:31:27;;;;;;;;;;;;;;;12.72;47.55;98127.81;4967506;28;20446;-62
2021/11/11 11:33:56;;;;;;;3.65;2.35;;;;;;;12.18;47.49;98132.28;4981245;28;19980;-62
2021/11/11 11:37:06;;;;;;;4.45;2.78;;;;;;;12.02;47.71;98136.97;4965416;28;20057;-61
2021/11/11 11:39:40;;;;;;;6.25;2.42;;;;;;;11.89;47.94;98132.63;4983270;28;20559;-63
2021/11/11 11:42:09;;;;;;;3.10;2.25;;;;;;;12.23;47.03;98131.22;4968736;28;20065;-63
2021/11/11 11:44:45;;;;;;;6.88;2.42;;;;;;;12.43;47.18;98125.44;4966222;28;20805;-62
2021/11/11 11:47:44;;;;;;;3.88;2.20;;;;;;;12.53;46.49;98127.72;4953299;28;20061;-67
2021/11/11 11:50:12;;;;;;;2.50;1.65;;;;;;;12.11;47.44;98120.97;4951749;28;20058;-62
2021/11/11 11:52:44;;;;;;;4.18;2.25;;;;;;;11.93;48.19;98128.78;4966140;28;20050;-66
2021/11/11 11:55:27;;;;;;;11.30;3.47;;;;;;;11.71;48.76;98042.50;4961669;28;20099;-68
2021/11/11 12:40:00;;;;;;;4.93;2.80;;;;;;;12.52;48.39;98067.72;4960888;28;20522;-64
2021/11/11 12:42:31;;;;;;;8.35;3.95;;;;;;;12.87;48.87;98074.16;4966100;28;20055;-64
2021/11/11 12:45:13;;;;;;;6.55;4.13;;;;;;;12.95;47.73;98059.25;4965529;28;20062;-64
2021/11/11 12:47:47;;;;;;;5.47;3.60;;;;;;;13.06;47.07;98063.13;4965175;28;20150;-69
2021/11/11 12:50:35;;;;;;;4.28;2.67;;;;;;;12.72;46.95;98055.53;4964669;28;20144;-68
2021/11/11 12:53:14;;;;;;;7.68;3.60;;;;;;;12.72;46.91;98055.53;4965487;28;20050;-69
2021/11/11 12:55:56;;;;;;;8.98;3.65;;;;;;;12.49;47.06;98050.97;4964919;28;20065;-62
2021/11/11 12:58:31;;;;;;;5.93;3.30;;;;;;;12.62;47.58;98049.69;4964950;28;20141;-70